sensor_id;sensor_type;location;lat;lon;timestamp;temperature;humidity
27567;DHT22;15006;48.584;9.186;2023-11-21T00:02:23;5.00;99.90
27567;DHT22;15006;48.584;9.186;2023-11-21T00:04:49;5.00;99.90
27567;DHT22;15006;48.584;9.186;2023-11-21T00:07:14;4.90;99.90
27567;DHT22;15006;48.584;9.186;2023-11-21T00:09:40;4.90;99.90
27567;DHT22;15006;48.584;9.186;2023-11-21T00:12:07;4.90;99.90
27567;DHT22;15006;48.584;9.186;2023-11-21T00:14:36;4.90;99.90
27567;DHT22;15006;48.584;9.186;2023-11-21T00:17:02;4.90;99.90
27567;DHT22;15006;48.584;9.186;2023-11-21T00:19:28;4.90;99.90
27567;DHT22;15006;48.584;9.186;2023-11-21T00:21:54;4.90;99.90
27567;DHT22;15006;48.584;9.186;2023-11-21T00:24:20;4.90;99.90
27567;DHT22;15006;48.584;9.186;2023-11-21T00:26:45;4.90;99.90
27567;DHT22;15006;48.584;9.186;2023-11-21T00:29:14;4.90;99.90
27567;DHT22;15006;48.584;9.186;2023-11-21T00:31:43;4.90;99.90
27567;DHT22;15006;48.584;9.186;2023-11-21T00:34:10;4.90;99.90
27567;DHT22;15006;48.584;9.186;2023-11-21T00:36:37;4.90;99.90
27567;DHT22;15006;48.584;9.186;2023-11-21T00:39:03;4.90;99.90
27567;DHT22;15006;48.584;9.186;2023-11-21T00:41:29;4.90;99.90
27567;DHT22;15006;48.584;9.186;2023-11-21T00:43:55;4.90;99.90
27567;DHT22;15006;48.584;9.186;2023-11-21T00:46:21;4.90;99.90
27567;DHT22;15006;48.584;9.186;2023-11-21T00:48:47;5.00;99.90
27567;DHT22;15006;48.584;9.186;2023-11-21T00:51:13;5.00;99.90
27567;DHT22;15006;48.584;9.186;2023-11-21T00:53:38;5.00;99.90
27567;DHT22;15006;48.584;9.186;2023-11-21T00:56:05;5.00;99.90
27567;DHT22;15006;48.584;9.186;2023-11-21T00:58:31;5.00;99.90
27567;DHT22;15006;48.584;9.186;2023-11-21T01:00:56;5.10;99.90
27567;DHT22;15006;48.584;9.186;2023-11-21T01:03:23;5.10;99.90
27567;DHT22;15006;48.584;9.186;2023-11-21T01:05:49;5.10;99.90
27567;DHT22;15006;48.584;9.186;2023-11-21T01:08:15;5.20;99.90
27567;DHT22;15006;48.584;9.186;2023-11-21T01:10:41;5.20;99.90
27567;DHT22;15006;48.584;9.186;2023-11-21T01:13:07;5.20;99.90
27567;DHT22;15006;48.584;9.186;2023-11-21T01:15:35;5.20;99.90
27567;DHT22;15006;48.584;9.186;2023-11-21T01:18:02;5.30;99.90
27567;DHT22;15006;48.584;9.186;2023-11-21T01:20:29;5.30;99.90
27567;DHT22;15006;48.584;9.186;2023-11-21T01:22:54;5.30;99.90
27567;DHT22;15006;48.584;9.186;2023-11-21T01:25:20;5.30;99.90
27567;DHT22;15006;48.584;9.186;2023-11-21T01:27:46;5.30;99.90
27567;DHT22;15006;48.584;9.186;2023-11-21T01:30:12;5.30;99.90
27567;DHT22;15006;48.584;9.186;2023-11-21T01:32:38;5.30;99.90
27567;DHT22;15006;48.584;9.186;2023-11-21T01:35:05;5.30;99.90
27567;DHT22;15006;48.584;9.186;2023-11-21T01:37:32;5.30;99.90
27567;DHT22;15006;48.584;9.186;2023-11-21T01:39:58;5.30;99.90
27567;DHT22;15006;48.584;9.186;2023-11-21T01:42:26;5.30;99.90
27567;DHT22;15006;48.584;9.186;2023-11-21T01:44:52;5.30;99.90
27567;DHT22;15006;48.584;9.186;2023-11-21T01:47:20;5.30;99.90
27567;DHT22;15006;48.584;9.186;2023-11-21T01:49:46;5.20;99.90
27567;DHT22;15006;48.584;9.186;2023-11-21T01:52:13;5.20;99.90
27567;DHT22;15006;48.584;9.186;2023-11-21T01:54:39;5.20;99.90
27567;DHT22;15006;48.584;9.186;2023-11-21T01:57:05;5.20;99.90
27567;DHT22;15006;48.584;9.186;2023-11-21T01:59:35;5.10;99.90
27567;DHT22;15006;48.584;9.186;2023-11-21T02:02:05;5.10;99.90
27567;DHT22;15006;48.584;9.186;2023-11-21T02:04:35;5.10;99.90
27567;DHT22;15006;48.584;9.186;2023-11-21T02:07:02;5.00;99.90
27567;DHT22;15006;48.584;9.186;2023-11-21T02:09:32;5.00;99.90
27567;DHT22;15006;48.584;9.186;2023-11-21T02:12:04;5.00;99.90
27567;DHT22;15006;48.584;9.186;2023-11-21T02:14:30;5.00;99.90
27567;DHT22;15006;48.584;9.186;2023-11-21T02:16:56;5.00;99.90
27567;DHT22;15006;48.584;9.186;2023-11-21T02:19:23;5.00;99.90
27567;DHT22;15006;48.584;9.186;2023-11-21T02:21:51;5.00;99.90
27567;DHT22;15006;48.584;9.186;2023-11-21T02:24:18;5.00;99.90
27567;DHT22;15006;48.584;9.186;2023-11-21T02:26:45;5.00;99.90
27567;DHT22;15006;48.584;9.186;2023-11-21T02:29:11;5.00;99.90
27567;DHT22;15006;48.584;9.186;2023-11-21T02:31:38;5.00;99.90
27567;DHT22;15006;48.584;9.186;2023-11-21T02:34:13;5.00;99.90
27567;DHT22;15006;48.584;9.186;2023-11-21T02:36:40;4.90;99.90
27567;DHT22;15006;48.584;9.186;2023-11-21T02:39:08;4.90;99.90
27567;DHT22;15006;48.584;9.186;2023-11-21T02:41:34;4.80;99.90
27567;DHT22;15006;48.584;9.186;2023-11-21T02:44:00;4.80;99.80
27567;DHT22;15006;48.584;9.186;2023-11-21T02:46:26;4.70;99.70
27567;DHT22;15006;48.584;9.186;2023-11-21T02:48:52;4.70;99.90
27567;DHT22;15006;48.584;9.186;2023-11-21T02:51:20;4.70;99.90
27567;DHT22;15006;48.584;9.186;2023-11-21T02:53:46;4.60;99.90
27567;DHT22;15006;48.584;9.186;2023-11-21T02:56:12;4.60;99.90
27567;DHT22;15006;48.584;9.186;2023-11-21T02:58:41;4.60;99.90
27567;DHT22;15006;48.584;9.186;2023-11-21T03:01:09;4.60;99.90
27567;DHT22;15006;48.584;9.186;2023-11-21T03:03:39;4.50;99.90
27567;DHT22;15006;48.584;9.186;2023-11-21T03:06:06;4.50;99.90
27567;DHT22;15006;48.584;9.186;2023-11-21T03:08:32;4.50;99.90
27567;DHT22;15006;48.584;9.186;2023-11-21T03:10:58;4.50;99.90
27567;DHT22;15006;48.584;9.186;2023-11-21T03:13:24;4.50;99.90
27567;DHT22;15006;48.584;9.186;2023-11-21T03:15:50;4.50;99.90
27567;DHT22;15006;48.584;9.186;2023-11-21T03:18:15;4.40;99.90
27567;DHT22;15006;48.584;9.186;2023-11-21T03:20:43;4.40;99.90
27567;DHT22;15006;48.584;9.186;2023-11-21T03:23:12;4.50;99.90
27567;DHT22;15006;48.584;9.186;2023-11-21T03:25:37;4.40;99.90
27567;DHT22;15006;48.584;9.186;2023-11-21T03:28:03;4.40;99.90
27567;DHT22;15006;48.584;9.186;2023-11-21T03:30:29;4.50;99.90
27567;DHT22;15006;48.584;9.186;2023-11-21T03:32:55;4.50;99.90
27567;DHT22;15006;48.584;9.186;2023-11-21T03:35:22;4.50;99.90
27567;DHT22;15006;48.584;9.186;2023-11-21T03:37:48;4.50;99.90
27567;DHT22;15006;48.584;9.186;2023-11-21T03:40:14;4.50;99.90
27567;DHT22;15006;48.584;9.186;2023-11-21T03:42:40;4.50;99.90
27567;DHT22;15006;48.584;9.186;2023-11-21T03:45:06;4.50;99.90
27567;DHT22;15006;48.584;9.186;2023-11-21T03:47:32;4.50;99.90
27567;DHT22;15006;48.584;9.186;2023-11-21T03:49:58;4.50;99.90
27567;DHT22;15006;48.584;9.186;2023-11-21T03:52:25;4.60;99.90
27567;DHT22;15006;48.584;9.186;2023-11-21T03:54:51;4.60;99.90
27567;DHT22;15006;48.584;9.186;2023-11-21T03:57:16;4.50;99.90
27567;DHT22;15006;48.584;9.186;2023-11-21T03:59:42;4.50;99.90
27567;DHT22;15006;48.584;9.186;2023-11-21T04:02:09;4.60;99.90
27567;DHT22;15006;48.584;9.186;2023-11-21T04:04:35;4.60;99.90
27567;DHT22;15006;48.584;9.186;2023-11-21T04:07:01;4.60;99.90
27567;DHT22;15006;48.584;9.186;2023-11-21T04:09:27;4.60;99.90
27567;DHT22;15006;48.584;9.186;2023-11-21T04:11:53;4.60;99.90
27567;DHT22;15006;48.584;9.186;2023-11-21T04:14:19;4.60;99.90
27567;DHT22;15006;48.584;9.186;2023-11-21T04:16:47;4.60;99.90
27567;DHT22;15006;48.584;9.186;2023-11-21T04:19:14;4.60;99.90
27567;DHT22;15006;48.584;9.186;2023-11-21T04:21:40;4.60;99.90
27567;DHT22;15006;48.584;9.186;2023-11-21T04:24:07;4.60;99.90
27567;DHT22;15006;48.584;9.186;2023-11-21T04:26:33;4.60;99.90
27567;DHT22;15006;48.584;9.186;2023-11-21T04:28:59;4.70;99.90
27567;DHT22;15006;48.584;9.186;2023-11-21T04:31:24;4.70;99.90
27567;DHT22;15006;48.584;9.186;2023-11-21T04:33:50;4.70;99.90
27567;DHT22;15006;48.584;9.186;2023-11-21T04:36:16;4.70;99.90
27567;DHT22;15006;48.584;9.186;2023-11-21T04:38:42;4.70;99.90
27567;DHT22;15006;48.584;9.186;2023-11-21T04:41:09;4.70;99.90
27567;DHT22;15006;48.584;9.186;2023-11-21T04:43:35;4.70;99.90
27567;DHT22;15006;48.584;9.186;2023-11-21T04:46:01;4.80;99.90
27567;DHT22;15006;48.584;9.186;2023-11-21T04:48:27;4.80;99.90
27567;DHT22;15006;48.584;9.186;2023-11-21T04:50:53;4.80;99.90
27567;DHT22;15006;48.584;9.186;2023-11-21T04:53:19;4.80;99.90
27567;DHT22;15006;48.584;9.186;2023-11-21T04:55:45;4.80;99.90
27567;DHT22;15006;48.584;9.186;2023-11-21T04:58:12;4.80;99.90
27567;DHT22;15006;48.584;9.186;2023-11-21T05:00:38;4.80;99.90
27567;DHT22;15006;48.584;9.186;2023-11-21T05:03:04;4.80;99.90
27567;DHT22;15006;48.584;9.186;2023-11-21T05:05:32;4.80;99.90
27567;DHT22;15006;48.584;9.186;2023-11-21T05:08:01;4.90;99.90
27567;DHT22;15006;48.584;9.186;2023-11-21T05:10:28;4.90;99.90
27567;DHT22;15006;48.584;9.186;2023-11-21T05:12:54;4.90;99.90
27567;DHT22;15006;48.584;9.186;2023-11-21T05:15:21;4.90;99.90
27567;DHT22;15006;48.584;9.186;2023-11-21T05:17:48;4.90;99.90
27567;DHT22;15006;48.584;9.186;2023-11-21T05:20:17;4.90;99.90
27567;DHT22;15006;48.584;9.186;2023-11-21T05:22:47;4.90;99.90
27567;DHT22;15006;48.584;9.186;2023-11-21T05:25:13;4.90;99.90
27567;DHT22;15006;48.584;9.186;2023-11-21T05:27:39;5.00;99.90
27567;DHT22;15006;48.584;9.186;2023-11-21T05:30:05;4.90;99.90
27567;DHT22;15006;48.584;9.186;2023-11-21T05:32:32;5.00;99.90
27567;DHT22;15006;48.584;9.186;2023-11-21T05:34:58;4.90;99.90
27567;DHT22;15006;48.584;9.186;2023-11-21T05:37:24;5.00;99.90
27567;DHT22;15006;48.584;9.186;2023-11-21T05:39:55;5.00;99.90
27567;DHT22;15006;48.584;9.186;2023-11-21T05:42:22;5.00;99.90
27567;DHT22;15006;48.584;9.186;2023-11-21T05:44:48;5.00;99.90
27567;DHT22;15006;48.584;9.186;2023-11-21T05:47:14;4.90;99.90
27567;DHT22;15006;48.584;9.186;2023-11-21T05:49:40;4.90;99.90
27567;DHT22;15006;48.584;9.186;2023-11-21T05:52:06;4.90;99.90
27567;DHT22;15006;48.584;9.186;2023-11-21T05:54:32;4.90;99.90
27567;DHT22;15006;48.584;9.186;2023-11-21T05:56:58;4.90;99.90
27567;DHT22;15006;48.584;9.186;2023-11-21T05:59:24;4.90;99.90
27567;DHT22;15006;48.584;9.186;2023-11-21T06:01:50;4.90;99.90
27567;DHT22;15006;48.584;9.186;2023-11-21T06:04:16;4.90;99.90
27567;DHT22;15006;48.584;9.186;2023-11-21T06:06:44;4.80;99.90
27567;DHT22;15006;48.584;9.186;2023-11-21T06:09:09;4.90;99.90
27567;DHT22;15006;48.584;9.186;2023-11-21T06:11:37;4.80;99.90
27567;DHT22;15006;48.584;9.186;2023-11-21T06:14:03;4.80;99.90
27567;DHT22;15006;48.584;9.186;2023-11-21T06:16:29;4.80;99.90
27567;DHT22;15006;48.584;9.186;2023-11-21T06:18:54;4.70;99.90
27567;DHT22;15006;48.584;9.186;2023-11-21T06:21:20;4.70;99.90
27567;DHT22;15006;48.584;9.186;2023-11-21T06:23:46;4.70;99.90
27567;DHT22;15006;48.584;9.186;2023-11-21T06:26:12;4.70;99.90
27567;DHT22;15006;48.584;9.186;2023-11-21T06:28:38;4.70;99.90
27567;DHT22;15006;48.584;9.186;2023-11-21T06:31:04;4.70;99.90
27567;DHT22;15006;48.584;9.186;2023-11-21T06:33:33;4.70;99.90
27567;DHT22;15006;48.584;9.186;2023-11-21T06:36:00;4.70;99.90
27567;DHT22;15006;48.584;9.186;2023-11-21T06:38:28;4.70;99.90
27567;DHT22;15006;48.584;9.186;2023-11-21T06:40:57;4.80;99.90
27567;DHT22;15006;48.584;9.186;2023-11-21T06:43:23;4.80;99.90
27567;DHT22;15006;48.584;9.186;2023-11-21T06:45:50;4.80;99.90
27567;DHT22;15006;48.584;9.186;2023-11-21T06:48:16;4.80;99.90
27567;DHT22;15006;48.584;9.186;2023-11-21T06:50:42;4.80;99.90
27567;DHT22;15006;48.584;9.186;2023-11-21T06:53:08;4.90;99.90
27567;DHT22;15006;48.584;9.186;2023-11-21T06:55:35;4.80;99.90
27567;DHT22;15006;48.584;9.186;2023-11-21T06:58:01;4.80;99.90
27567;DHT22;15006;48.584;9.186;2023-11-21T07:00:27;4.80;99.90
27567;DHT22;15006;48.584;9.186;2023-11-21T07:02:54;4.80;99.90
27567;DHT22;15006;48.584;9.186;2023-11-21T07:05:22;4.80;99.90
27567;DHT22;15006;48.584;9.186;2023-11-21T07:07:49;4.90;99.90
27567;DHT22;15006;48.584;9.186;2023-11-21T07:10:15;4.90;99.90
27567;DHT22;15006;48.584;9.186;2023-11-21T07:12:41;4.90;99.90
27567;DHT22;15006;48.584;9.186;2023-11-21T07:15:07;4.90;99.90
27567;DHT22;15006;48.584;9.186;2023-11-21T07:17:35;4.90;99.90
27567;DHT22;15006;48.584;9.186;2023-11-21T07:20:01;4.90;99.90
27567;DHT22;15006;48.584;9.186;2023-11-21T07:22:29;4.90;99.90
27567;DHT22;15006;48.584;9.186;2023-11-21T07:24:55;4.90;99.90
27567;DHT22;15006;48.584;9.186;2023-11-21T07:27:22;5.00;99.90
27567;DHT22;15006;48.584;9.186;2023-11-21T07:29:48;5.00;99.90
27567;DHT22;15006;48.584;9.186;2023-11-21T07:32:14;5.00;99.90
27567;DHT22;15006;48.584;9.186;2023-11-21T07:34:40;5.00;99.90
27567;DHT22;15006;48.584;9.186;2023-11-21T07:37:07;5.10;99.90
27567;DHT22;15006;48.584;9.186;2023-11-21T07:39:35;5.10;99.90
27567;DHT22;15006;48.584;9.186;2023-11-21T07:42:07;5.10;99.90
27567;DHT22;15006;48.584;9.186;2023-11-21T07:44:33;5.10;99.90
27567;DHT22;15006;48.584;9.186;2023-11-21T07:46:59;5.10;99.90
27567;DHT22;15006;48.584;9.186;2023-11-21T07:49:25;5.20;99.90
27567;DHT22;15006;48.584;9.186;2023-11-21T07:51:52;5.20;99.90
27567;DHT22;15006;48.584;9.186;2023-11-21T07:54:18;5.20;99.90
27567;DHT22;15006;48.584;9.186;2023-11-21T07:56:44;5.30;99.90
27567;DHT22;15006;48.584;9.186;2023-11-21T07:59:10;5.30;99.90
27567;DHT22;15006;48.584;9.186;2023-11-21T08:01:37;5.30;99.90
27567;DHT22;15006;48.584;9.186;2023-11-21T08:04:04;5.40;99.90
27567;DHT22;15006;48.584;9.186;2023-11-21T08:06:29;5.40;99.90
27567;DHT22;15006;48.584;9.186;2023-11-21T08:08:56;5.40;99.90
27567;DHT22;15006;48.584;9.186;2023-11-21T08:11:22;5.50;99.90
27567;DHT22;15006;48.584;9.186;2023-11-21T08:13:48;5.50;99.90
27567;DHT22;15006;48.584;9.186;2023-11-21T08:16:14;5.60;99.90
27567;DHT22;15006;48.584;9.186;2023-11-21T08:18:41;5.60;99.90
27567;DHT22;15006;48.584;9.186;2023-11-21T08:21:06;5.70;99.90
27567;DHT22;15006;48.584;9.186;2023-11-21T08:23:33;5.70;99.90
27567;DHT22;15006;48.584;9.186;2023-11-21T08:26:00;5.70;99.90
27567;DHT22;15006;48.584;9.186;2023-11-21T08:28:27;5.80;99.90
27567;DHT22;15006;48.584;9.186;2023-11-21T08:30:53;5.80;99.90
27567;DHT22;15006;48.584;9.186;2023-11-21T08:33:22;5.80;99.90
27567;DHT22;15006;48.584;9.186;2023-11-21T08:35:48;5.80;99.90
27567;DHT22;15006;48.584;9.186;2023-11-21T08:38:14;5.90;99.90
27567;DHT22;15006;48.584;9.186;2023-11-21T08:40:40;5.90;99.90
27567;DHT22;15006;48.584;9.186;2023-11-21T08:43:06;5.80;99.90
27567;DHT22;15006;48.584;9.186;2023-11-21T08:45:32;5.90;99.90
27567;DHT22;15006;48.584;9.186;2023-11-21T08:48:00;5.90;99.90
27567;DHT22;15006;48.584;9.186;2023-11-21T08:50:26;5.90;99.90
27567;DHT22;15006;48.584;9.186;2023-11-21T08:52:52;5.90;99.90
27567;DHT22;15006;48.584;9.186;2023-11-21T08:55:18;5.90;99.90
27567;DHT22;15006;48.584;9.186;2023-11-21T08:57:45;5.90;99.90
27567;DHT22;15006;48.584;9.186;2023-11-21T09:00:14;5.90;99.90
27567;DHT22;15006;48.584;9.186;2023-11-21T09:02:42;5.90;99.90
27567;DHT22;15006;48.584;9.186;2023-11-21T09:05:09;5.90;99.90
27567;DHT22;15006;48.584;9.186;2023-11-21T09:07:36;5.90;99.90
27567;DHT22;15006;48.584;9.186;2023-11-21T09:10:02;5.90;99.90
27567;DHT22;15006;48.584;9.186;2023-11-21T09:12:29;5.90;99.90
27567;DHT22;15006;48.584;9.186;2023-11-21T09:14:55;5.90;99.90
27567;DHT22;15006;48.584;9.186;2023-11-21T09:17:20;5.90;99.90
27567;DHT22;15006;48.584;9.186;2023-11-21T09:19:46;6.00;99.90
27567;DHT22;15006;48.584;9.186;2023-11-21T09:22:15;6.00;99.90
27567;DHT22;15006;48.584;9.186;2023-11-21T09:24:42;6.00;99.90
27567;DHT22;15006;48.584;9.186;2023-11-21T09:27:08;6.00;99.90
27567;DHT22;15006;48.584;9.186;2023-11-21T09:29:35;6.00;99.90
27567;DHT22;15006;48.584;9.186;2023-11-21T09:32:02;6.10;99.90
27567;DHT22;15006;48.584;9.186;2023-11-21T09:34:28;6.10;99.90
27567;DHT22;15006;48.584;9.186;2023-11-21T09:36:54;6.10;99.90
27567;DHT22;15006;48.584;9.186;2023-11-21T09:39:20;6.20;99.90
27567;DHT22;15006;48.584;9.186;2023-11-21T09:41:49;6.30;99.90
27567;DHT22;15006;48.584;9.186;2023-11-21T09:44:19;6.40;99.90
27567;DHT22;15006;48.584;9.186;2023-11-21T09:46:49;6.50;99.90
27567;DHT22;15006;48.584;9.186;2023-11-21T09:49:15;6.70;99.90
27567;DHT22;15006;48.584;9.186;2023-11-21T09:51:44;6.70;99.90
27567;DHT22;15006;48.584;9.186;2023-11-21T09:54:13;6.90;99.90
27567;DHT22;15006;48.584;9.186;2023-11-21T09:56:41;7.00;99.90
27567;DHT22;15006;48.584;9.186;2023-11-21T09:59:09;7.00;99.90
27567;DHT22;15006;48.584;9.186;2023-11-21T10:01:38;7.00;99.90
27567;DHT22;15006;48.584;9.186;2023-11-21T10:04:06;7.00;99.90
27567;DHT22;15006;48.584;9.186;2023-11-21T10:06:40;7.00;99.90
27567;DHT22;15006;48.584;9.186;2023-11-21T10:09:09;7.00;99.60
27567;DHT22;15006;48.584;9.186;2023-11-21T10:11:40;6.90;98.70
27567;DHT22;15006;48.584;9.186;2023-11-21T10:14:10;6.90;99.90
27567;DHT22;15006;48.584;9.186;2023-11-21T10:16:38;6.80;99.90
27567;DHT22;15006;48.584;9.186;2023-11-21T10:19:04;6.80;99.90
27567;DHT22;15006;48.584;9.186;2023-11-21T10:21:32;6.80;99.90
27567;DHT22;15006;48.584;9.186;2023-11-21T10:23:58;6.70;99.90
27567;DHT22;15006;48.584;9.186;2023-11-21T10:26:25;6.70;99.90
27567;DHT22;15006;48.584;9.186;2023-11-21T10:28:58;6.70;99.50
27567;DHT22;15006;48.584;9.186;2023-11-21T10:31:29;6.70;99.60
27567;DHT22;15006;48.584;9.186;2023-11-21T10:36:41;6.60;99.90
27567;DHT22;15006;48.584;9.186;2023-11-21T10:39:07;6.60;99.40
27567;DHT22;15006;48.584;9.186;2023-11-21T10:41:33;6.60;99.60
27567;DHT22;15006;48.584;9.186;2023-11-21T10:44:01;6.60;99.90
27567;DHT22;15006;48.584;9.186;2023-11-21T10:46:29;6.50;99.90
27567;DHT22;15006;48.584;9.186;2023-11-21T10:48:56;6.60;99.90
27567;DHT22;15006;48.584;9.186;2023-11-21T10:51:22;6.50;99.80
27567;DHT22;15006;48.584;9.186;2023-11-21T10:53:51;6.60;99.90
27567;DHT22;15006;48.584;9.186;2023-11-21T10:56:17;6.70;99.90
27567;DHT22;15006;48.584;9.186;2023-11-21T10:58:45;6.60;99.90
27567;DHT22;15006;48.584;9.186;2023-11-21T11:01:11;6.70;99.90
27567;DHT22;15006;48.584;9.186;2023-11-21T11:03:39;6.70;99.90
27567;DHT22;15006;48.584;9.186;2023-11-21T11:06:07;6.70;99.90
27567;DHT22;15006;48.584;9.186;2023-11-21T11:08:37;6.80;99.90
27567;DHT22;15006;48.584;9.186;2023-11-21T11:11:07;6.80;99.90
27567;DHT22;15006;48.584;9.186;2023-11-21T11:13:33;6.80;99.60
27567;DHT22;15006;48.584;9.186;2023-11-21T11:15:59;6.80;99.70
27567;DHT22;15006;48.584;9.186;2023-11-21T11:18:30;6.80;99.10
27567;DHT22;15006;48.584;9.186;2023-11-21T11:20:58;6.70;98.00
27567;DHT22;15006;48.584;9.186;2023-11-21T11:26:32;6.60;98.50
27567;DHT22;15006;48.584;9.186;2023-11-21T11:34:41;6.50;99.50
27567;DHT22;15006;48.584;9.186;2023-11-21T11:37:12;6.40;99.60
27567;DHT22;15006;48.584;9.186;2023-11-21T11:39:39;6.30;99.80
27567;DHT22;15006;48.584;9.186;2023-11-21T11:42:13;6.30;99.90
27567;DHT22;15006;48.584;9.186;2023-11-21T11:55:12;6.10;99.90
27567;DHT22;15006;48.584;9.186;2023-11-21T11:57:40;6.10;99.90
27567;DHT22;15006;48.584;9.186;2023-11-21T12:02:37;6.00;99.90
27567;DHT22;15006;48.584;9.186;2023-11-21T12:05:10;6.00;99.90
27567;DHT22;15006;48.584;9.186;2023-11-21T12:07:40;6.00;99.90
27567;DHT22;15006;48.584;9.186;2023-11-21T12:10:11;6.00;99.90
27567;DHT22;15006;48.584;9.186;2023-11-21T12:12:43;6.00;99.90
27567;DHT22;15006;48.584;9.186;2023-11-21T12:15:11;6.00;99.90
27567;DHT22;15006;48.584;9.186;2023-11-21T12:17:38;6.10;99.90
27567;DHT22;15006;48.584;9.186;2023-11-21T12:20:05;6.10;99.90
27567;DHT22;15006;48.584;9.186;2023-11-21T12:22:49;6.10;99.90
27567;DHT22;15006;48.584;9.186;2023-11-21T12:25:16;6.10;99.90
27567;DHT22;15006;48.584;9.186;2023-11-21T12:27:45;6.10;99.90
27567;DHT22;15006;48.584;9.186;2023-11-21T12:30:18;6.10;99.90
27567;DHT22;15006;48.584;9.186;2023-11-21T12:32:51;6.10;99.90
27567;DHT22;15006;48.584;9.186;2023-11-21T12:35:18;6.10;99.90
27567;DHT22;15006;48.584;9.186;2023-11-21T12:37:45;6.10;99.90
27567;DHT22;15006;48.584;9.186;2023-11-21T12:40:12;6.10;99.90
27567;DHT22;15006;48.584;9.186;2023-11-21T12:42:47;6.10;99.90
27567;DHT22;15006;48.584;9.186;2023-11-21T12:47:43;6.10;99.90
27567;DHT22;15006;48.584;9.186;2023-11-21T12:50:10;6.20;99.90
27567;DHT22;15006;48.584;9.186;2023-11-21T12:52:40;6.20;99.90
27567;DHT22;15006;48.584;9.186;2023-11-21T12:55:07;6.20;99.90
27567;DHT22;15006;48.584;9.186;2023-11-21T12:57:35;6.20;99.90
27567;DHT22;15006;48.584;9.186;2023-11-21T13:00:04;6.30;99.90
27567;DHT22;15006;48.584;9.186;2023-11-21T13:02:37;6.30;99.90
27567;DHT22;15006;48.584;9.186;2023-11-21T13:05:04;6.40;99.90
27567;DHT22;15006;48.584;9.186;2023-11-21T13:07:41;6.50;99.90
27567;DHT22;15006;48.584;9.186;2023-11-21T13:10:12;6.60;99.90
27567;DHT22;15006;48.584;9.186;2023-11-21T13:12:42;6.70;99.90
27567;DHT22;15006;48.584;9.186;2023-11-21T13:15:14;6.70;99.90
27567;DHT22;15006;48.584;9.186;2023-11-21T13:17:46;6.80;99.90
27567;DHT22;15006;48.584;9.186;2023-11-21T13:20:12;6.90;99.90
27567;DHT22;15006;48.584;9.186;2023-11-21T13:22:48;7.00;99.90
27567;DHT22;15006;48.584;9.186;2023-11-21T13:25:23;7.00;99.90
27567;DHT22;15006;48.584;9.186;2023-11-21T13:27:49;7.00;99.90
27567;DHT22;15006;48.584;9.186;2023-11-21T13:30:16;7.00;99.90
27567;DHT22;15006;48.584;9.186;2023-11-21T13:32:45;7.00;99.90
27567;DHT22;15006;48.584;9.186;2023-11-21T13:35:17;7.00;99.90
27567;DHT22;15006;48.584;9.186;2023-11-21T13:37:49;7.00;99.90
27567;DHT22;15006;48.584;9.186;2023-11-21T13:40:21;7.00;99.90
27567;DHT22;15006;48.584;9.186;2023-11-21T13:42:53;6.90;99.90
27567;DHT22;15006;48.584;9.186;2023-11-21T13:45:20;7.00;99.90
27567;DHT22;15006;48.584;9.186;2023-11-21T13:47:52;6.90;99.90
27567;DHT22;15006;48.584;9.186;2023-11-21T13:50:20;7.00;99.90
27567;DHT22;15006;48.584;9.186;2023-11-21T13:52:54;7.00;99.90
27567;DHT22;15006;48.584;9.186;2023-11-21T13:55:20;7.00;99.90
27567;DHT22;15006;48.584;9.186;2023-11-21T13:57:50;7.00;99.90
27567;DHT22;15006;48.584;9.186;2023-11-21T14:00:18;7.00;99.90
27567;DHT22;15006;48.584;9.186;2023-11-21T14:03:07;6.90;99.90
27567;DHT22;15006;48.584;9.186;2023-11-21T14:05:43;6.90;99.90
27567;DHT22;15006;48.584;9.186;2023-11-21T14:08:10;6.90;99.80
27567;DHT22;15006;48.584;9.186;2023-11-21T14:10:37;6.90;99.90
27567;DHT22;15006;48.584;9.186;2023-11-21T14:13:08;6.80;99.50
27567;DHT22;15006;48.584;9.186;2023-11-21T14:15:41;6.70;99.60
27567;DHT22;15006;48.584;9.186;2023-11-21T14:18:09;6.60;99.90
27567;DHT22;15006;48.584;9.186;2023-11-21T14:20:40;6.60;99.90
27567;DHT22;15006;48.584;9.186;2023-11-21T14:23:07;6.50;99.90
27567;DHT22;15006;48.584;9.186;2023-11-21T14:25:34;6.50;99.90
27567;DHT22;15006;48.584;9.186;2023-11-21T14:28:05;6.40;99.90
27567;DHT22;15006;48.584;9.186;2023-11-21T14:30:32;6.40;99.90
27567;DHT22;15006;48.584;9.186;2023-11-21T14:33:01;6.40;99.90
27567;DHT22;15006;48.584;9.186;2023-11-21T14:35:27;6.40;99.90
27567;DHT22;15006;48.584;9.186;2023-11-21T14:37:55;6.40;99.90
27567;DHT22;15006;48.584;9.186;2023-11-21T14:40:22;6.30;99.90
27567;DHT22;15006;48.584;9.186;2023-11-21T14:42:50;6.30;99.90
27567;DHT22;15006;48.584;9.186;2023-11-21T14:45:18;6.30;99.90
27567;DHT22;15006;48.584;9.186;2023-11-21T14:47:46;6.20;99.90
27567;DHT22;15006;48.584;9.186;2023-11-21T14:50:21;6.30;99.90
27567;DHT22;15006;48.584;9.186;2023-11-21T14:53:06;6.30;99.90
27567;DHT22;15006;48.584;9.186;2023-11-21T14:55:35;6.20;99.90
27567;DHT22;15006;48.584;9.186;2023-11-21T14:58:16;6.20;99.90
27567;DHT22;15006;48.584;9.186;2023-11-21T15:00:57;6.20;99.90
27567;DHT22;15006;48.584;9.186;2023-11-21T15:03:24;6.20;99.90
27567;DHT22;15006;48.584;9.186;2023-11-21T15:06:09;6.20;99.90
27567;DHT22;15006;48.584;9.186;2023-11-21T15:08:49;6.20;99.90
27567;DHT22;15006;48.584;9.186;2023-11-21T15:11:23;6.20;99.90
27567;DHT22;15006;48.584;9.186;2023-11-21T15:13:56;6.10;99.90
27567;DHT22;15006;48.584;9.186;2023-11-21T15:16:23;6.10;99.90
27567;DHT22;15006;48.584;9.186;2023-11-21T15:18:51;6.10;99.90
27567;DHT22;15006;48.584;9.186;2023-11-21T15:21:19;6.10;99.90
27567;DHT22;15006;48.584;9.186;2023-11-21T15:23:47;6.10;99.90
27567;DHT22;15006;48.584;9.186;2023-11-21T15:26:13;6.10;99.90
27567;DHT22;15006;48.584;9.186;2023-11-21T15:28:39;6.00;99.90
27567;DHT22;15006;48.584;9.186;2023-11-21T15:31:05;6.00;99.90
27567;DHT22;15006;48.584;9.186;2023-11-21T15:33:32;6.00;99.90
27567;DHT22;15006;48.584;9.186;2023-11-21T15:36:01;6.00;99.90
27567;DHT22;15006;48.584;9.186;2023-11-21T15:38:28;5.90;99.90
27567;DHT22;15006;48.584;9.186;2023-11-21T15:40:54;5.90;99.90
27567;DHT22;15006;48.584;9.186;2023-11-21T15:43:20;5.90;99.90
27567;DHT22;15006;48.584;9.186;2023-11-21T15:45:46;5.90;99.90
27567;DHT22;15006;48.584;9.186;2023-11-21T15:48:11;5.90;99.90
27567;DHT22;15006;48.584;9.186;2023-11-21T15:50:37;5.90;99.90
27567;DHT22;15006;48.584;9.186;2023-11-21T15:53:03;5.90;99.90
27567;DHT22;15006;48.584;9.186;2023-11-21T15:55:30;5.90;99.90
27567;DHT22;15006;48.584;9.186;2023-11-21T15:57:56;5.90;99.90
27567;DHT22;15006;48.584;9.186;2023-11-21T16:00:22;5.90;99.90
27567;DHT22;15006;48.584;9.186;2023-11-21T16:02:49;5.80;99.90
27567;DHT22;15006;48.584;9.186;2023-11-21T16:05:15;5.80;99.90
27567;DHT22;15006;48.584;9.186;2023-11-21T16:07:43;5.90;99.90
27567;DHT22;15006;48.584;9.186;2023-11-21T16:10:09;5.80;99.90
27567;DHT22;15006;48.584;9.186;2023-11-21T16:12:40;5.80;99.90
27567;DHT22;15006;48.584;9.186;2023-11-21T16:15:07;5.80;99.90